Time;durP1;ratioP1;P1;durP2;ratioP2;P2;SDS_P1;SDS_P2;PMS_P1;PMS_P2;Temp;Humidity;BMP_temperature;BMP_pressure;BME280_temperature;BME280_humidity;BME280_pressure;Samples;Min_cycle;Max_cycle;Signal;HPM_P1;HPM_P2
2023/05/08 00:02:34;;;;;;;4.20;3.90;;;;;;;16.74;47.58;98313.16;8345059;28;20240;-73
2023/05/08 00:06:37;;;;;;;5.07;4.10;;;;;;;16.64;48.13;98309.44;8344894;28;20273;-73
2023/05/08 00:10:41;;;;;;;4.20;3.90;;;;;;;16.96;47.25;98307.38;8344929;28;20240;-72
2023/05/08 00:14:44;;;;;;;4.37;3.97;;;;;;;17.15;46.83;98291.31;8344411;28;20289;-72
2023/05/08 00:18:52;;;;;;;4.03;3.80;;;;;;;16.76;47.96;98304.25;8344490;28;20240;-72
2023/05/08 00:22:56;;;;;;;4.43;4.00;;;;;;;17.12;47.54;98302.00;8344226;28;20240;-73
2023/05/08 00:27:01;;;;;;;4.50;4.20;;;;;;;16.85;48.17;98312.47;8344425;28;20433;-72
2023/05/08 00:31:03;;;;;;;4.57;4.20;;;;;;;16.38;49.30;98314.53;8346206;28;20236;-72
2023/05/08 00:35:07;;;;;;;4.70;4.30;;;;;;;16.58;47.99;98293.22;8350391;28;20236;-72
2023/05/08 00:39:09;;;;;;;4.70;4.30;;;;;;;16.94;47.83;98304.03;8350117;28;20560;-72
2023/05/08 00:43:16;;;;;;;4.50;4.10;;;;;;;16.79;47.54;98311.91;8350209;28;20243;-72
2023/05/08 00:47:20;;;;;;;4.97;4.57;;;;;;;16.26;48.54;98304.84;8349503;28;20236;-73
2023/05/08 00:51:23;;;;;;;4.87;4.57;;;;;;;16.01;47.95;98303.72;8349670;28;20427;-73
2023/05/08 00:55:27;;;;;;;4.60;4.30;;;;;;;15.83;47.82;98316.97;8349800;28;20243;-72
2023/05/08 00:59:32;;;;;;;4.53;4.17;;;;;;;15.97;47.36;98313.56;8349568;28;20231;-72
2023/05/08 01:03:36;;;;;;;5.30;4.90;;;;;;;16.13;46.96;98316.06;8349576;28;20530;-72
2023/05/08 01:07:39;;;;;;;4.40;4.00;;;;;;;16.19;46.58;98325.28;8349480;28;20534;-72
2023/05/08 01:11:47;;;;;;;4.40;4.10;;;;;;;15.56;48.16;98327.28;8349688;28;20226;-72
2023/05/08 01:15:59;;;;;;;4.43;4.03;;;;;;;15.96;46.46;98317.09;8349418;28;20403;-72
2023/05/08 01:20:23;;;;;;;4.50;4.13;;;;;;;15.65;46.61;98338.97;8348828;28;20233;-72
2023/05/08 01:24:47;;;;;;;4.40;4.10;;;;;;;15.87;46.66;98337.69;8339030;28;20233;-72
2023/05/08 01:29:29;;;;;;;4.30;3.93;;;;;;;15.55;47.00;98335.19;8349111;28;20225;-72
2023/05/08 01:33:37;;;;;;;4.20;3.90;;;;;;;15.33;47.83;98346.06;8348162;28;20225;-72
2023/05/08 01:37:44;;;;;;;4.40;4.10;;;;;;;15.90;46.23;98343.59;8348149;28;20221;-72
2023/05/08 01:41:59;;;;;;;3.83;3.63;;;;;;;16.01;46.35;98346.38;8347007;28;20530;-72
2023/05/08 01:46:05;;;;;;;4.30;3.90;;;;;;;16.06;46.27;98348.72;8347863;28;20277;-72
2023/05/08 01:50:14;;;;;;;4.20;3.90;;;;;;;16.06;46.50;98337.44;8347803;28;20393;-72
2023/05/08 01:54:23;;;;;;;4.50;4.20;;;;;;;15.86;47.33;98339.47;8347748;28;20230;-72
2023/05/08 01:58:27;;;;;;;4.50;4.17;;;;;;;15.60;47.67;98359.25;8347180;28;20237;-72
2023/05/08 02:02:32;;;;;;;4.60;4.23;;;;;;;15.93;46.97;98366.06;8347584;28;20625;-72
2023/05/08 02:06:37;;;;;;;4.03;3.73;;;;;;;15.79;46.78;98359.88;8347286;28;20556;-72
2023/05/08 02:10:41;;;;;;;4.40;4.10;;;;;;;15.73;46.93;98357.63;8347012;28;20409;-72
2023/05/08 02:14:45;;;;;;;4.57;4.13;;;;;;;15.82;46.80;98354.47;8347079;28;20330;-72
2023/05/08 02:18:51;;;;;;;4.50;4.07;;;;;;;15.70;46.90;98357.78;8346922;28;20237;-72
2023/05/08 02:22:56;;;;;;;3.77;3.53;;;;;;;15.71;47.12;98358.63;8346594;28;20276;-72
2023/05/08 02:26:59;;;;;;;4.20;3.80;;;;;;;15.17;48.56;98341.72;8346403;28;20463;-72
2023/05/08 02:31:02;;;;;;;4.60;4.20;;;;;;;15.48;47.51;98354.75;8346331;28;20237;-72
2023/05/08 02:35:06;;;;;;;4.07;3.87;;;;;;;15.55;47.46;98362.13;8346080;28;20229;-72
2023/05/08 02:39:11;;;;;;;4.50;4.20;;;;;;;15.62;47.58;98373.91;8345901;28;20241;-72
2023/05/08 02:43:14;;;;;;;4.47;4.17;;;;;;;15.41;48.05;98356.88;8346122;28;20240;-72
2023/05/08 02:47:21;;;;;;;4.87;4.00;;;;;;;15.55;47.53;98371.72;8346060;28;20228;-72
2023/05/08 02:51:27;;;;;;;4.77;4.27;;;;;;;15.23;48.18;98350.94;8345446;28;20239;-73
2023/05/08 02:55:35;;;;;;;4.37;4.07;;;;;;;15.51;47.85;98375.44;8345537;28;20230;-72
2023/05/08 02:59:42;;;;;;;4.50;4.20;;;;;;;15.62;47.56;98371.28;8345822;28;20256;-73
2023/05/08 03:03:46;;;;;;;4.40;4.10;;;;;;;15.48;47.63;98381.69;8345620;28;20233;-72
2023/05/08 03:07:53;;;;;;;4.70;4.40;;;;;;;14.90;49.13;98369.34;8345239;28;20261;-72
2023/05/08 03:12:02;;;;;;;4.33;4.03;;;;;;;15.15;48.26;98366.19;8345377;28;20232;-72
2023/05/08 03:16:06;;;;;;;5.27;4.87;;;;;;;15.07;48.77;98376.22;8345216;28;20226;-72
2023/05/08 03:20:12;;;;;;;4.60;4.30;;;;;;;15.70;47.21;98373.44;8345561;28;20304;-73
2023/05/08 03:24:17;;;;;;;4.50;4.20;;;;;;;15.38;48.01;98375.31;8345351;28;20416;-72
2023/05/08 03:28:22;;;;;;;4.10;3.80;;;;;;;15.61;47.93;98369.63;8344629;28;20415;-72
2023/05/08 03:32:27;;;;;;;5.00;4.63;;;;;;;15.42;48.16;98382.03;8345508;28;20237;-73
2023/05/08 03:36:30;;;;;;;5.30;4.90;;;;;;;15.38;48.42;98384.00;8345317;28;20233;-72
2023/05/08 03:40:37;;;;;;;4.70;4.40;;;;;;;15.45;48.19;98389.69;8344645;28;20285;-72
2023/05/08 03:44:42;;;;;;;4.53;4.20;;;;;;;15.70;47.96;98380.44;8345250;28;20222;-72
2023/05/08 03:48:46;;;;;;;4.57;4.27;;;;;;;15.44;48.42;98378.44;8345320;28;20266;-72
2023/05/08 03:52:50;;;;;;;4.90;4.50;;;;;;;15.63;47.65;98366.88;8345020;28;20225;-72
2023/05/08 03:56:54;;;;;;;4.50;4.20;;;;;;;15.62;47.89;98384.34;8344737;28;20248;-72
2023/05/08 04:01:06;;;;;;;5.57;5.10;;;;;;;15.07;49.25;98387.50;8344744;28;20236;-72
2023/05/08 04:05:14;;;;;;;5.33;4.97;;;;;;;15.39;48.58;98387.44;8345227;28;20233;-72
2023/05/08 04:09:20;;;;;;;5.03;4.63;;;;;;;14.30;48.47;98196.25;8350779;28;20226;-72
2023/05/08 04:13:28;;;;;;;5.10;4.77;;;;;;;15.49;48.56;98388.59;8350439;28;20433;-72
2023/05/08 04:17:37;;;;;;;5.57;5.17;;;;;;;15.31;49.00;98398.31;8351062;28;20239;-72
2023/05/08 04:21:42;;;;;;;5.77;5.37;;;;;;;15.36;48.55;98393.66;8351000;28;20229;-72
2023/05/08 04:25:48;;;;;;;5.63;5.13;;;;;;;14.75;50.62;98394.47;8350294;28;20514;-72
2023/05/08 04:29:51;;;;;;;5.67;5.10;;;;;;;15.70;48.09;98398.72;8350481;28;20552;-72
2023/05/08 04:33:55;;;;;;;5.07;4.73;;;;;;;15.85;47.91;98397.00;8350402;28;20285;-72
2023/05/08 04:37:58;;;;;;;5.60;5.10;;;;;;;14.83;50.41;98402.72;8350667;28;20309;-72
2023/05/08 04:42:03;;;;;;;5.97;5.47;;;;;;;15.08;49.41;98406.59;8350379;28;20391;-70
2023/05/08 04:46:08;;;;;;;5.83;5.43;;;;;;;14.83;49.89;98397.50;8350461;28;20529;-74
2023/05/08 04:50:13;;;;;;;5.90;5.30;;;;;;;14.92;50.14;98404.00;8350000;28;20368;-72
2023/05/08 04:54:16;;;;;;;5.67;5.27;;;;;;;14.91;50.33;98412.72;8349512;28;20254;-72
2023/05/08 04:58:18;;;;;;;5.60;5.27;;;;;;;14.97;49.93;98409.81;8349214;28;20227;-72
2023/05/08 05:02:21;;;;;;;6.50;5.90;;;;;;;14.59;50.76;98397.09;8349804;28;20236;-70
2023/05/08 05:06:26;;;;;;;5.10;4.80;;;;;;;14.87;50.66;98414.69;8349234;28;20275;-71
2023/05/08 05:10:29;;;;;;;6.30;5.80;;;;;;;14.84;50.63;98420.88;8349008;28;20252;-72
2023/05/08 05:14:32;;;;;;;5.87;5.47;;;;;;;15.08;50.04;98435.28;8349771;28;20233;-71
2023/05/08 05:18:37;;;;;;;7.63;6.50;;;;;;;14.78;50.68;98433.44;8348887;28;20233;-71
2023/05/08 05:22:43;;;;;;;6.43;5.70;;;;;;;15.30;49.93;98430.53;8348934;28;20252;-72
2023/05/08 05:26:46;;;;;;;6.37;5.77;;;;;;;14.99;49.99;98406.19;8348675;28;20529;-72
2023/05/08 05:30:49;;;;;;;6.47;5.97;;;;;;;15.33;49.86;98430.38;8348411;28;20237;-73
2023/05/08 05:34:52;;;;;;;6.73;6.10;;;;;;;14.89;50.67;98438.03;8348234;28;20422;-72
2023/05/08 05:38:56;;;;;;;6.30;5.80;;;;;;;15.35;49.59;98436.34;8348517;28;20228;-72
2023/05/08 05:42:59;;;;;;;6.40;5.97;;;;;;;15.60;49.10;98429.75;8348119;28;20316;-72
2023/05/08 05:47:03;;;;;;;6.60;6.10;;;;;;;14.99;49.85;98434.88;8348614;28;20555;-72
2023/05/08 05:51:07;;;;;;;7.00;6.40;;;;;;;15.14;50.19;98430.56;8348304;28;20229;-72
2023/05/08 05:55:11;;;;;;;7.27;6.77;;;;;;;14.99;50.10;98447.91;8348055;28;20414;-72
2023/05/08 05:59:14;;;;;;;7.13;6.43;;;;;;;14.94;50.46;98447.31;8347907;28;20232;-72
2023/05/08 06:03:17;;;;;;;8.07;7.37;;;;;;;15.25;49.94;98451.69;8347668;28;20237;-72
2023/05/08 06:07:20;;;;;;;6.97;6.37;;;;;;;15.56;49.23;98457.78;8347300;28;20251;-72
2023/05/08 06:11:24;;;;;;;6.70;6.20;;;;;;;15.54;49.31;98449.22;8347315;28;20253;-72
2023/05/08 06:15:27;;;;;;;6.37;5.87;;;;;;;15.00;49.61;98350.50;8347521;28;20237;-72
2023/05/08 06:19:30;;;;;;;7.13;6.43;;;;;;;15.47;49.48;98465.31;8347185;28;20548;-72
2023/05/08 06:23:33;;;;;;;5.73;5.33;;;;;;;16.07;48.37;98465.34;8347237;28;20241;-72
2023/05/08 06:27:37;;;;;;;6.77;6.27;;;;;;;15.76;48.93;98466.28;8346755;28;20234;-72
2023/05/08 06:31:40;;;;;;;6.30;5.80;;;;;;;15.29;49.56;98434.09;8346904;28;20236;-72
2023/05/08 06:35:46;;;;;;;7.37;6.77;;;;;;;15.33;49.29;98464.31;8347539;28;20239;-72
2023/05/08 06:39:48;;;;;;;6.57;5.97;;;;;;;15.50;49.59;98462.50;8347128;28;20414;-70
2023/05/08 06:44:07;;;;;;;5.93;5.43;;;;;;;16.00;48.38;98469.25;8346862;28;20538;-71
2023/05/08 06:48:10;;;;;;;6.30;5.80;;;;;;;15.68;49.95;98469.28;8346887;28;20421;-72
2023/05/08 06:52:12;;;;;;;6.73;6.20;;;;;;;15.86;48.33;98457.00;8351113;28;20551;-71
2023/05/08 06:56:17;;;;;;;6.00;5.50;;;;;;;16.25;48.15;98459.97;8347163;28;20541;-71
2023/05/08 07:00:21;;;;;;;6.00;5.50;;;;;;;16.36;47.36;98460.16;8345986;28;20284;-73
2023/05/08 07:04:24;;;;;;;6.63;6.07;;;;;;;15.96;48.41;98467.75;8346055;28;20423;-72
2023/05/08 07:08:28;;;;;;;7.37;6.40;;;;;;;15.85;49.06;98462.31;8346153;28;20236;-73
2023/05/08 07:12:31;;;;;;;6.70;6.10;;;;;;;16.56;47.41;98465.03;8345649;28;20238;-72
2023/05/08 07:16:36;;;;;;;6.77;6.17;;;;;;;16.00;49.08;98458.78;8346082;28;20230;-72
2023/05/08 07:20:39;;;;;;;6.20;5.73;;;;;;;16.69;47.18;98457.25;8344820;28;20296;-71
2023/05/08 07:24:42;;;;;;;5.83;5.43;;;;;;;17.02;47.19;98468.38;8345531;28;20334;-72
2023/05/08 07:28:45;;;;;;;5.90;5.50;;;;;;;17.26;45.68;98466.81;8345491;28;20225;-72
2023/05/08 07:32:49;;;;;;;7.10;6.50;;;;;;;16.98;46.98;98452.00;8345589;28;20230;-72
2023/05/08 07:36:52;;;;;;;6.37;5.87;;;;;;;16.96;46.59;98462.59;8345521;28;20230;-72
2023/05/08 07:40:56;;;;;;;6.77;6.23;;;;;;;17.15;46.36;98470.13;8349683;28;20227;-71
2023/05/08 07:45:00;;;;;;;6.47;5.97;;;;;;;17.32;45.83;98468.19;8352475;28;20222;-71
2023/05/08 07:49:05;;;;;;;7.80;7.10;;;;;;;17.23;46.03;98464.41;8352224;28;20233;-72
2023/05/08 07:53:07;;;;;;;6.13;5.60;;;;;;;17.57;46.05;98463.06;8351985;28;20536;-72
2023/05/08 07:57:10;;;;;;;6.60;6.10;;;;;;;16.85;47.05;98465.03;8351598;28;20228;-72
2023/05/08 08:01:16;;;;;;;6.43;5.93;;;;;;;16.90;46.81;98410.63;8352087;28;20606;-73
2023/05/08 08:05:21;;;;;;;6.90;6.30;;;;;;;17.68;45.55;98479.84;8351269;28;20241;-71
2023/05/08 08:09:24;;;;;;;6.80;6.30;;;;;;;17.10;46.38;98464.34;8351233;28;20237;-71
2023/05/08 08:13:28;;;;;;;6.80;6.20;;;;;;;17.17;46.52;98468.25;8350933;28;20323;-72
2023/05/08 08:17:31;;;;;;;7.10;6.23;;;;;;;17.42;46.70;98471.06;8351253;28;20229;-73
2023/05/08 08:21:36;;;;;;;5.97;5.47;;;;;;;18.05;45.38;98466.97;8350730;28;20232;-73
2023/05/08 08:25:38;;;;;;;6.80;6.20;;;;;;;17.49;46.41;98467.13;8350755;28;20523;-73
2023/05/08 08:29:41;;;;;;;6.57;5.97;;;;;;;17.87;45.61;98472.50;8350359;28;20236;-72
2023/05/08 08:33:44;;;;;;;7.03;6.33;;;;;;;17.54;46.13;98472.91;8350546;28;20233;-71
2023/05/08 08:37:49;;;;;;;6.43;5.93;;;;;;;17.89;45.66;98472.41;8350208;28;20271;-71
2023/05/08 08:41:51;;;;;;;6.70;6.10;;;;;;;17.81;50.38;98469.44;8350167;28;20238;-70
2023/05/08 08:45:58;;;;;;;6.83;6.33;;;;;;;18.22;45.12;98471.94;8350374;28;20233;-70
2023/05/08 08:50:04;;;;;;;7.00;6.40;;;;;;;18.28;45.14;98463.66;8350099;28;20472;-70
2023/05/08 08:54:14;;;;;;;7.03;6.43;;;;;;;18.10;45.14;98467.50;8349190;28;20220;-70
2023/05/08 08:58:21;;;;;;;6.63;6.03;;;;;;;18.91;44.04;98468.97;8350107;28;20244;-70
2023/05/08 09:02:25;;;;;;;7.13;6.53;;;;;;;18.40;44.61;98472.44;8349375;28;20236;-70
2023/05/08 09:06:28;;;;;;;6.30;5.80;;;;;;;19.08;44.45;98468.63;8349767;28;20302;-70
2023/05/08 09:10:33;;;;;;;7.13;6.53;;;;;;;19.00;43.06;98475.34;8348770;28;20438;-69
2023/05/08 09:14:36;;;;;;;6.13;5.63;;;;;;;19.14;43.88;98483.09;8349517;28;20222;-69
2023/05/08 09:18:39;;;;;;;6.80;6.20;;;;;;;19.51;42.99;98451.53;8349545;28;20226;-69
2023/05/08 09:22:43;;;;;;;7.20;6.60;;;;;;;18.98;43.69;98477.25;8348893;28;20407;-70
2023/05/08 09:26:49;;;;;;;7.45;6.78;;;;;;;19.12;42.96;98475.31;8347383;28;20442;-70
2023/05/08 09:30:53;;;;;;;6.87;6.27;;;;;;;19.20;43.22;98463.44;8349279;28;20436;-71
2023/05/08 09:34:57;;;;;;;7.03;6.53;;;;;;;18.90;43.60;98456.78;8349011;28;20239;-71
2023/05/08 09:38:59;;;;;;;7.20;6.50;;;;;;;19.31;43.30;98466.13;8348671;28;20255;-70
2023/05/08 09:43:13;;;;;;;6.60;6.10;;;;;;;19.38;42.70;98467.38;8348787;28;20398;-70
2023/05/08 09:47:17;;;;;;;6.72;6.30;;;;;;;19.77;42.11;98459.34;8347382;28;20722;-70
2023/05/08 09:51:21;;;;;;;6.37;5.87;;;;;;;19.86;42.50;98461.28;8348061;28;20236;-70
2023/05/08 09:55:23;;;;;;;7.30;6.70;;;;;;;19.05;44.49;98473.25;8348512;28;20557;-70
2023/05/08 09:59:30;;;;;;;7.37;6.63;;;;;;;19.22;43.49;98472.03;8348342;28;20338;-70
2023/05/08 10:03:48;;;;;;;6.43;5.93;;;;;;;19.99;41.67;98458.56;8346708;28;20415;-69
2023/05/08 10:07:51;;;;;;;7.00;6.40;;;;;;;18.99;43.29;98419.41;8348030;28;20289;-69
2023/05/08 10:11:54;;;;;;;7.37;6.77;;;;;;;19.40;43.34;98469.88;8346739;28;20233;-70
2023/05/08 10:15:59;;;;;;;6.67;6.03;;;;;;;20.11;42.36;98468.16;8347902;28;20235;-70
2023/05/08 10:20:07;;;;;;;6.77;6.27;;;;;;;19.71;42.79;98473.72;8347925;28;20225;-71
2023/05/08 10:24:14;;;;;;;6.30;5.87;;;;;;;20.84;41.56;98469.56;8347434;28;20415;-71
2023/05/08 10:28:22;;;;;;;6.60;6.13;;;;;;;20.83;41.09;98467.91;8352551;28;20263;-71
2023/05/08 10:32:28;;;;;;;7.27;6.63;;;;;;;20.43;41.83;98460.44;8345514;28;20244;-70
2023/05/08 10:36:32;;;;;;;6.00;5.57;;;;;;;21.03;40.89;98403.13;8352791;28;20243;-71
2023/05/08 10:40:35;;;;;;;6.90;6.40;;;;;;;20.82;41.00;98468.84;8346765;28;20232;-71
2023/05/08 10:44:38;;;;;;;7.10;6.50;;;;;;;20.59;40.79;98467.16;8347027;28;20248;-71
2023/05/08 10:48:52;;;;;;;7.70;7.10;;;;;;;20.74;41.20;98467.78;8346517;28;20233;-71
2023/05/08 10:53:04;;;;;;;5.57;4.77;;;;;;;21.26;42.81;98464.47;8346490;28;20248;-70
2023/05/08 10:57:10;;;;;;;5.47;4.97;;;;;;;21.79;41.71;98470.78;8346573;28;20234;-71
2023/05/08 11:01:15;;;;;;;6.60;6.00;;;;;;;21.60;40.98;98459.13;8346077;28;20552;-71
2023/05/08 11:05:20;;;;;;;6.90;6.40;;;;;;;21.02;43.22;98466.44;8352246;28;20234;-73
2023/05/08 11:09:23;;;;;;;6.73;6.20;;;;;;;21.84;40.00;98461.53;8346597;28;20229;-70
2023/05/08 11:13:31;;;;;;;7.50;6.87;;;;;;;20.97;40.69;98444.91;8346441;28;20305;-71
2023/05/08 11:17:34;;;;;;;7.17;6.47;;;;;;;21.88;40.15;98462.13;8346329;28;20225;-71
2023/05/08 11:22:17;;;;;;;8.13;7.33;;;;;;;21.73;40.53;98466.03;8346637;28;20237;-71
2023/05/08 11:26:20;;;;;;;7.67;6.87;;;;;;;21.16;42.83;98458.28;8346520;28;20522;-72
2023/05/08 11:30:43;;;;;;;6.07;5.50;;;;;;;20.87;44.64;98453.53;8346119;28;20240;-70
2023/05/08 11:34:47;;;;;;;5.33;4.83;;;;;;;21.49;43.23;98456.53;8346036;28;20232;-70
2023/05/08 11:43:25;;;;;;;7.70;7.00;;;;;;;21.00;42.19;98452.53;8475535;27;20300;-72
2023/05/08 11:47:32;;;;;;;6.37;5.70;;;;;;;21.10;43.02;98421.91;8441728;28;20224;-73
2023/05/08 11:51:37;;;;;;;5.20;4.80;;;;;;;21.35;44.02;98454.16;8441408;28;20530;-72
2023/05/08 11:55:40;;;;;;;7.77;7.03;;;;;;;20.59;45.08;98454.00;8441256;28;20231;-71
2023/05/08 11:59:44;;;;;;;6.17;5.50;;;;;;;20.97;43.35;98455.44;8441246;28;20227;-70
2023/05/08 12:03:47;;;;;;;6.27;5.67;;;;;;;20.74;43.56;98379.13;8431274;28;20232;-71
2023/05/08 12:07:50;;;;;;;5.60;5.20;;;;;;;21.00;43.10;98419.19;8407330;28;20543;-73
2023/05/08 12:11:57;;;;;;;7.57;6.97;;;;;;;20.38;42.61;98390.72;8407209;28;20320;-75
2023/05/08 12:16:02;;;;;;;8.17;7.47;;;;;;;20.71;41.74;98445.16;8407176;28;20304;-75
2023/05/08 12:20:12;;;;;;;8.20;7.60;;;;;;;21.12;41.74;98456.84;8405842;28;20432;-75
2023/05/08 12:24:21;;;;;;;8.30;7.57;;;;;;;21.19;40.83;98420.31;8406971;28;20252;-75
2023/05/08 12:28:26;;;;;;;7.50;6.73;;;;;;;21.59;40.89;98453.97;8406203;28;20224;-76
2023/05/08 12:32:30;;;;;;;7.03;6.53;;;;;;;21.53;41.02;98439.50;8406137;28;20232;-76
2023/05/08 12:36:36;;;;;;;8.00;7.40;;;;;;;21.98;39.96;98455.13;8405951;28;20463;-72
2023/05/08 12:40:42;;;;;;;6.70;6.20;;;;;;;22.03;40.26;98434.47;8405373;28;20457;-72
2023/05/08 12:44:50;;;;;;;7.10;6.50;;;;;;;21.36;41.43;98337.28;8407089;28;20216;-71
2023/05/08 12:49:03;;;;;;;7.13;6.53;;;;;;;22.23;41.04;98445.13;8405898;28;20232;-70
2023/05/08 12:53:07;;;;;;;8.33;7.53;;;;;;;21.64;40.39;98447.38;8408897;28;20233;-72
2023/05/08 12:57:11;;;;;;;7.20;6.50;;;;;;;21.73;41.20;98440.50;8384823;28;20232;-73
2023/05/08 13:01:15;;;;;;;6.70;6.13;;;;;;;22.13;40.71;98447.72;8383984;28;20234;-73
2023/05/08 13:05:21;;;;;;;7.40;6.80;;;;;;;21.85;40.76;98444.75;8383363;28;20229;-73
2023/05/08 13:09:24;;;;;;;8.10;7.50;;;;;;;21.51;41.69;98445.88;8384411;28;20416;-73
2023/05/08 13:13:28;;;;;;;7.45;6.75;;;;;;;21.65;42.03;98448.22;8385493;28;20100;-73
2023/05/08 13:17:33;;;;;;;6.60;6.10;;;;;;;21.53;43.14;98439.50;8387125;28;20525;-72
2023/05/08 13:21:37;;;;;;;8.07;7.37;;;;;;;20.98;42.87;98433.41;8385780;28;20358;-70
2023/05/08 13:25:40;;;;;;;6.93;6.30;;;;;;;21.57;41.62;98437.44;8383898;28;20263;-71
2023/05/08 13:29:44;;;;;;;7.70;5.97;;;;;;;22.09;41.95;98427.84;8382990;28;20231;-71
2023/05/08 13:33:47;;;;;;;7.20;6.60;;;;;;;21.57;41.55;98411.97;8380950;28;20525;-72
2023/05/08 13:37:51;;;;;;;7.63;7.00;;;;;;;21.98;41.33;98415.56;8382197;28;20217;-71
2023/05/08 13:41:56;;;;;;;7.00;6.30;;;;;;;21.97;41.55;98420.97;8380676;28;20241;-71
2023/05/08 13:45:59;;;;;;;6.67;6.17;;;;;;;21.87;41.55;98415.63;8382099;28;20225;-71
2023/05/08 13:50:07;;;;;;;7.10;6.40;;;;;;;21.79;41.60;98412.81;8381480;28;20336;-70
2023/05/08 13:54:16;;;;;;;6.77;6.30;;;;;;;21.63;41.28;98410.63;8381168;28;20525;-72
2023/05/08 13:58:19;;;;;;;6.87;6.37;;;;;;;21.16;41.24;98355.56;8413478;28;20540;-73
2023/05/08 14:02:25;;;;;;;6.47;5.73;;;;;;;21.97;40.47;98403.38;8413675;28;20232;-72
2023/05/08 14:06:32;;;;;;;7.03;6.40;;;;;;;21.88;40.86;98411.22;8412885;28;20228;-72
2023/05/08 14:10:36;;;;;;;5.47;4.97;;;;;;;22.17;41.65;98408.75;8413798;28;20232;-72
2023/05/08 14:14:39;;;;;;;5.73;5.23;;;;;;;21.92;42.03;98399.44;8413399;28;20235;-72
2023/05/08 14:18:42;;;;;;;7.90;7.20;;;;;;;21.09;42.11;98401.78;8413149;28;20231;-71
2023/05/08 14:22:44;;;;;;;7.03;6.43;;;;;;;20.69;42.85;98402.34;8412620;28;20235;-70
2023/05/08 14:26:50;;;;;;;6.95;6.35;;;;;;;21.34;41.26;98398.00;8411400;28;20680;-71
2023/05/08 14:30:53;;;;;;;6.25;5.75;;;;;;;21.48;42.14;98392.47;8412494;28;20400;-71
2023/05/08 14:34:56;;;;;;;5.00;4.70;;;;;;;21.56;42.37;98389.19;8412763;28;20226;-71
2023/05/08 14:38:59;;;;;;;6.13;5.60;;;;;;;20.91;42.66;98385.69;8412629;28;20228;-71
2023/05/08 14:43:03;;;;;;;6.50;6.00;;;;;;;20.57;41.97;98304.13;8412268;28;20235;-71
2023/05/08 14:47:06;;;;;;;5.90;5.40;;;;;;;21.01;42.38;98373.44;8412019;28;20534;-71
2023/05/08 14:51:10;;;;;;;6.50;5.90;;;;;;;21.02;42.06;98384.84;8412038;28;20524;-71
2023/05/08 14:55:18;;;;;;;8.50;6.40;;;;;;;21.44;40.84;98377.88;8411881;28;20228;-71
2023/05/08 14:59:24;;;;;;;5.70;5.20;;;;;;;22.12;39.79;98385.38;8411973;28;20223;-71
2023/05/08 15:03:26;;;;;;;5.93;5.10;;;;;;;21.64;40.41;98383.28;8411666;28;20423;-71
2023/05/08 15:07:30;;;;;;;5.57;5.17;;;;;;;22.41;40.08;98363.63;8411376;28;20228;-71
2023/05/08 15:11:34;;;;;;;5.70;5.30;;;;;;;21.60;40.21;98382.69;8411289;28;20261;-71
2023/05/08 15:15:38;;;;;;;5.77;5.27;;;;;;;21.48;40.62;98381.94;8411117;28;20235;-71
2023/05/08 15:19:41;;;;;;;6.03;5.53;;;;;;;21.35;41.15;98383.88;8411437;28;20227;-71
2023/05/08 15:23:44;;;;;;;5.47;5.07;;;;;;;21.52;41.05;98379.88;8411240;28;20232;-72
2023/05/08 15:27:51;;;;;;;6.20;5.70;;;;;;;21.41;41.33;98374.63;8399233;28;20225;-71
2023/05/08 15:31:55;;;;;;;6.00;5.50;;;;;;;21.21;41.70;98366.56;8378033;28;20228;-72
2023/05/08 15:35:58;;;;;;;5.57;5.13;;;;;;;21.26;41.71;98368.81;8378026;28;20221;-72
2023/05/08 15:40:01;;;;;;;6.10;5.60;;;;;;;20.20;42.26;98328.09;8377264;28;20237;-71
2023/05/08 15:44:04;;;;;;;6.00;5.03;;;;;;;20.90;42.37;98370.84;8377378;28;20335;-71
2023/05/08 15:48:08;;;;;;;6.23;5.73;;;;;;;21.18;42.08;98368.63;8377219;28;20228;-72
2023/05/08 15:52:17;;;;;;;6.33;5.60;;;;;;;20.93;42.46;98364.50;8378258;28;20436;-72
2023/05/08 15:56:23;;;;;;;5.60;5.23;;;;;;;20.97;42.51;98355.41;8410811;28;20224;-72
2023/05/08 16:00:26;;;;;;;5.60;5.20;;;;;;;20.59;42.77;98351.38;8411242;28;20229;-72
2023/05/08 16:04:43;;;;;;;7.00;5.60;;;;;;;20.45;42.97;98353.31;8411222;28;20256;-71
2023/05/08 16:08:46;;;;;;;5.10;4.70;;;;;;;20.63;42.16;98355.47;8410736;28;20313;-72
2023/05/08 16:12:49;;;;;;;5.53;5.03;;;;;;;20.55;42.57;98349.94;8410973;28;20281;-72
2023/05/08 16:16:52;;;;;;;6.93;6.33;;;;;;;20.33;43.16;98340.28;8411538;28;20231;-72
2023/05/08 16:20:56;;;;;;;12.70;11.40;;;;;;;20.56;42.79;98356.88;8411361;28;20228;-71
2023/05/08 16:24:59;;;;;;;5.07;4.67;;;;;;;20.61;42.36;98349.50;8411124;28;20230;-71
2023/05/08 16:29:02;;;;;;;5.20;4.80;;;;;;;20.10;43.05;98342.91;8415688;28;20231;-71
2023/05/08 16:33:05;;;;;;;4.97;4.57;;;;;;;20.27;42.85;98350.31;8417028;28;20554;-72
2023/05/08 16:37:10;;;;;;;4.70;4.30;;;;;;;20.07;42.72;98351.88;8417177;28;20227;-72
2023/05/08 16:41:13;;;;;;;4.97;4.33;;;;;;;20.37;42.46;98355.72;8416669;28;20228;-72
2023/05/08 16:45:16;;;;;;;5.10;4.70;;;;;;;20.12;42.42;98356.75;8416460;28;20470;-73
2023/05/08 16:49:18;;;;;;;4.57;4.17;;;;;;;19.99;42.51;98348.16;8383172;28;20217;-74
2023/05/08 16:53:22;;;;;;;4.50;4.20;;;;;;;20.15;42.18;98367.06;8382391;28;20573;-73
2023/05/08 16:57:26;;;;;;;4.60;4.20;;;;;;;19.94;42.57;98372.16;8383245;28;20224;-73
2023/05/08 17:01:28;;;;;;;5.53;5.03;;;;;;;19.81;42.40;98363.53;8383411;28;20247;-72
2023/05/08 17:05:32;;;;;;;6.77;4.80;;;;;;;19.69;41.85;98367.91;8383235;28;20594;-71
2023/05/08 17:09:36;;;;;;;4.10;3.70;;;;;;;19.43;41.58;98368.06;8383161;28;20233;-72
2023/05/08 17:13:41;;;;;;;3.60;3.40;;;;;;;19.59;40.80;98351.16;8382983;28;20225;-72
2023/05/08 17:17:49;;;;;;;3.60;3.30;;;;;;;19.52;38.16;98374.44;8382907;28;20533;-72
2023/05/08 17:21:54;;;;;;;3.23;2.93;;;;;;;19.16;37.56;98378.00;8382921;28;20237;-72
2023/05/08 17:26:02;;;;;;;2.60;2.40;;;;;;;19.35;37.09;98367.78;8382807;28;20229;-74
2023/05/08 17:30:10;;;;;;;2.77;2.57;;;;;;;19.33;37.24;98353.94;8382836;28;20230;-72
2023/05/08 17:34:14;;;;;;;3.40;2.47;;;;;;;19.48;37.75;98363.31;8381432;28;20230;-73
2023/05/08 17:38:16;;;;;;;2.87;2.67;;;;;;;19.30;38.81;98376.00;8382215;28;20576;-71
2023/05/08 17:42:21;;;;;;;3.20;2.93;;;;;;;19.21;38.95;98371.44;8381452;28;20329;-71
2023/05/08 17:46:24;;;;;;;3.10;2.90;;;;;;;19.25;39.45;98386.03;8382007;28;20252;-72
2023/05/08 17:50:27;;;;;;;3.10;2.90;;;;;;;19.30;39.68;98390.94;8381755;28;20232;-72
2023/05/08 17:54:30;;;;;;;5.50;5.00;;;;;;;19.51;39.78;98385.88;8381606;28;20238;-72
2023/05/08 17:58:34;;;;;;;4.13;3.20;;;;;;;19.18;39.98;98397.09;8381362;28;20392;-73
2023/05/08 18:02:37;;;;;;;3.07;2.77;;;;;;;19.23;39.62;98384.44;8381486;28;20296;-72
2023/05/08 18:06:42;;;;;;;3.87;3.57;;;;;;;19.12;39.46;98393.13;8381230;28;20518;-72
2023/05/08 18:10:46;;;;;;;2.83;2.60;;;;;;;19.13;38.17;98405.28;8381191;28;20500;-71
2023/05/08 18:14:52;;;;;;;4.43;2.70;;;;;;;18.95;38.41;98404.84;8371492;28;20230;-71
2023/05/08 18:18:54;;;;;;;2.60;2.40;;;;;;;19.02;38.26;98406.06;8380194;28;20236;-70
2023/05/08 18:22:58;;;;;;;2.50;2.40;;;;;;;18.75;38.00;98412.31;8380794;28;20320;-70
2023/05/08 18:27:01;;;;;;;3.17;2.97;;;;;;;19.32;37.02;98408.25;8378843;28;20405;-72
2023/05/08 18:31:05;;;;;;;3.00;2.50;;;;;;;18.87;38.02;98396.69;8380510;28;20332;-71
2023/05/08 18:35:09;;;;;;;6.67;5.23;;;;;;;19.01;38.26;98409.63;8380766;28;20225;-71
2023/05/08 18:39:11;;;;;;;2.90;2.63;;;;;;;18.86;38.51;98406.31;8380265;28;20225;-71
2023/05/08 18:43:15;;;;;;;3.50;3.20;;;;;;;19.28;38.07;98409.41;8379499;28;20440;-71
2023/05/08 18:47:19;;;;;;;5.23;4.93;;;;;;;18.87;38.80;98413.25;8412457;28;20224;-72
2023/05/08 18:51:22;;;;;;;3.70;3.40;;;;;;;19.01;39.18;98409.63;8412753;28;20497;-71
2023/05/08 18:55:26;;;;;;;4.37;3.00;;;;;;;18.65;39.04;98413.88;8412978;28;20239;-72
2023/05/08 18:59:28;;;;;;;3.00;2.80;;;;;;;18.65;39.01;98423.56;8413048;28;20223;-72
2023/05/08 19:03:33;;;;;;;3.20;3.00;;;;;;;18.59;38.99;98422.19;8413017;28;20544;-71
2023/05/08 19:07:36;;;;;;;3.17;2.97;;;;;;;18.58;39.21;98407.38;8412944;28;20237;-71
2023/05/08 19:11:39;;;;;;;4.47;3.17;;;;;;;18.56;39.33;98399.66;8412637;28;20224;-72
2023/05/08 19:15:41;;;;;;;3.30;2.80;;;;;;;18.49;39.85;98429.03;8412919;28;20251;-72
2023/05/08 19:19:46;;;;;;;3.10;2.80;;;;;;;18.60;39.98;98431.75;8412926;28;20235;-71